sensor_id;sensor_type;location;lat;lon;timestamp;P1;durP1;ratioP1;P2;durP2;ratioP2
7171;SDS011;3627;46.544;14.944;2023-07-09T00:00:33;7.78;;;6.22;;
7171;SDS011;3627;46.544;14.944;2023-07-09T00:03:00;9.02;;;7.57;;
7171;SDS011;3627;46.544;14.944;2023-07-09T00:05:26;13.13;;;7.65;;
7171;SDS011;3627;46.544;14.944;2023-07-09T00:07:52;12.63;;;6.93;;
7171;SDS011;3627;46.544;14.944;2023-07-09T00:10:19;10.60;;;7.40;;
7171;SDS011;3627;46.544;14.944;2023-07-09T00:12:46;11.25;;;7.50;;
7171;SDS011;3627;46.544;14.944;2023-07-09T00:15:15;8.90;;;7.10;;
7171;SDS011;3627;46.544;14.944;2023-07-09T00:17:43;8.90;;;7.20;;
7171;SDS011;3627;46.544;14.944;2023-07-09T00:20:10;9.05;;;7.05;;
7171;SDS011;3627;46.544;14.944;2023-07-09T00:22:39;7.90;;;6.60;;
7171;SDS011;3627;46.544;14.944;2023-07-09T00:25:05;10.00;;;6.35;;
7171;SDS011;3627;46.544;14.944;2023-07-09T00:27:32;9.55;;;6.72;;
7171;SDS011;3627;46.544;14.944;2023-07-09T00:29:58;8.15;;;6.70;;
7171;SDS011;3627;46.544;14.944;2023-07-09T00:32:26;8.70;;;6.07;;
7171;SDS011;3627;46.544;14.944;2023-07-09T00:34:53;10.50;;;6.70;;
7171;SDS011;3627;46.544;14.944;2023-07-09T00:37:21;7.63;;;6.60;;
7171;SDS011;3627;46.544;14.944;2023-07-09T00:39:50;10.18;;;7.15;;
7171;SDS011;3627;46.544;14.944;2023-07-09T00:42:17;8.27;;;6.93;;
7171;SDS011;3627;46.544;14.944;2023-07-09T00:44:44;8.85;;;6.78;;
7171;SDS011;3627;46.544;14.944;2023-07-09T00:47:12;11.20;;;7.72;;
7171;SDS011;3627;46.544;14.944;2023-07-09T00:49:44;9.75;;;6.65;;
7171;SDS011;3627;46.544;14.944;2023-07-09T00:52:15;9.50;;;7.00;;
7171;SDS011;3627;46.544;14.944;2023-07-09T00:54:44;10.32;;;7.07;;
7171;SDS011;3627;46.544;14.944;2023-07-09T00:57:12;9.20;;;6.72;;
7171;SDS011;3627;46.544;14.944;2023-07-09T00:59:43;7.80;;;6.35;;
7171;SDS011;3627;46.544;14.944;2023-07-09T01:02:11;7.43;;;6.22;;
7171;SDS011;3627;46.544;14.944;2023-07-09T01:04:37;10.75;;;6.32;;
7171;SDS011;3627;46.544;14.944;2023-07-09T01:07:06;10.23;;;6.60;;
7171;SDS011;3627;46.544;14.944;2023-07-09T01:09:33;8.38;;;6.60;;
7171;SDS011;3627;46.544;14.944;2023-07-09T01:12:01;7.88;;;6.97;;
7171;SDS011;3627;46.544;14.944;2023-07-09T01:14:29;8.73;;;6.78;;
7171;SDS011;3627;46.544;14.944;2023-07-09T01:16:57;9.85;;;6.60;;
7171;SDS011;3627;46.544;14.944;2023-07-09T01:19:26;8.77;;;6.57;;
7171;SDS011;3627;46.544;14.944;2023-07-09T01:21:55;8.65;;;6.57;;
7171;SDS011;3627;46.544;14.944;2023-07-09T01:24:46;8.90;;;6.60;;
7171;SDS011;3627;46.544;14.944;2023-07-09T01:27:13;8.02;;;6.75;;
7171;SDS011;3627;46.544;14.944;2023-07-09T01:29:40;7.70;;;6.55;;
7171;SDS011;3627;46.544;14.944;2023-07-09T01:32:07;9.95;;;6.28;;
7171;SDS011;3627;46.544;14.944;2023-07-09T01:34:35;9.85;;;6.90;;
7171;SDS011;3627;46.544;14.944;2023-07-09T01:37:03;10.75;;;6.53;;
7171;SDS011;3627;46.544;14.944;2023-07-09T01:39:29;9.55;;;7.20;;
7171;SDS011;3627;46.544;14.944;2023-07-09T01:41:56;7.43;;;6.40;;
7171;SDS011;3627;46.544;14.944;2023-07-09T01:44:22;7.47;;;6.25;;
7171;SDS011;3627;46.544;14.944;2023-07-09T01:46:49;8.18;;;6.55;;
7171;SDS011;3627;46.544;14.944;2023-07-09T01:49:16;9.68;;;6.40;;
7171;SDS011;3627;46.544;14.944;2023-07-09T01:51:42;7.15;;;5.75;;
7171;SDS011;3627;46.544;14.944;2023-07-09T01:54:10;11.10;;;7.05;;
7171;SDS011;3627;46.544;14.944;2023-07-09T01:56:36;10.77;;;6.82;;
7171;SDS011;3627;46.544;14.944;2023-07-09T01:59:03;8.73;;;7.10;;
7171;SDS011;3627;46.544;14.944;2023-07-09T02:01:30;10.95;;;6.95;;
7171;SDS011;3627;46.544;14.944;2023-07-09T02:03:58;9.27;;;6.53;;
7171;SDS011;3627;46.544;14.944;2023-07-09T02:06:25;10.50;;;6.47;;
7171;SDS011;3627;46.544;14.944;2023-07-09T02:08:51;8.35;;;6.55;;
7171;SDS011;3627;46.544;14.944;2023-07-09T02:11:19;8.27;;;6.63;;
7171;SDS011;3627;46.544;14.944;2023-07-09T02:13:45;8.75;;;6.55;;
7171;SDS011;3627;46.544;14.944;2023-07-09T02:16:11;8.45;;;6.10;;
7171;SDS011;3627;46.544;14.944;2023-07-09T02:18:38;10.77;;;6.80;;
7171;SDS011;3627;46.544;14.944;2023-07-09T02:21:04;7.80;;;6.07;;
7171;SDS011;3627;46.544;14.944;2023-07-09T02:23:31;11.50;;;5.90;;
7171;SDS011;3627;46.544;14.944;2023-07-09T02:25:57;8.13;;;5.75;;
7171;SDS011;3627;46.544;14.944;2023-07-09T02:28:25;10.43;;;6.35;;
7171;SDS011;3627;46.544;14.944;2023-07-09T02:30:51;7.32;;;5.93;;
7171;SDS011;3627;46.544;14.944;2023-07-09T02:33:18;6.25;;;5.43;;
7171;SDS011;3627;46.544;14.944;2023-07-09T02:35:45;8.18;;;6.13;;
7171;SDS011;3627;46.544;14.944;2023-07-09T02:38:12;9.02;;;5.97;;
7171;SDS011;3627;46.544;14.944;2023-07-09T02:40:38;9.25;;;7.15;;
7171;SDS011;3627;46.544;14.944;2023-07-09T02:43:04;10.48;;;6.18;;
7171;SDS011;3627;46.544;14.944;2023-07-09T02:45:32;8.35;;;6.60;;
7171;SDS011;3627;46.544;14.944;2023-07-09T02:47:59;9.18;;;6.57;;
7171;SDS011;3627;46.544;14.944;2023-07-09T02:50:25;7.32;;;5.95;;
7171;SDS011;3627;46.544;14.944;2023-07-09T02:52:51;7.15;;;6.28;;
7171;SDS011;3627;46.544;14.944;2023-07-09T02:55:18;9.32;;;6.57;;
7171;SDS011;3627;46.544;14.944;2023-07-09T02:57:44;7.75;;;6.68;;
7171;SDS011;3627;46.544;14.944;2023-07-09T03:00:11;6.45;;;5.38;;
7171;SDS011;3627;46.544;14.944;2023-07-09T03:02:39;8.77;;;6.40;;
7171;SDS011;3627;46.544;14.944;2023-07-09T03:05:05;7.47;;;6.03;;
7171;SDS011;3627;46.544;14.944;2023-07-09T03:07:32;9.70;;;6.43;;
7171;SDS011;3627;46.544;14.944;2023-07-09T03:09:58;8.85;;;6.13;;
7171;SDS011;3627;46.544;14.944;2023-07-09T03:12:24;9.52;;;7.35;;
7171;SDS011;3627;46.544;14.944;2023-07-09T03:14:51;7.95;;;6.38;;
7171;SDS011;3627;46.544;14.944;2023-07-09T03:17:17;9.85;;;6.75;;
7171;SDS011;3627;46.544;14.944;2023-07-09T03:19:45;9.57;;;6.70;;
7171;SDS011;3627;46.544;14.944;2023-07-09T03:22:11;9.10;;;6.22;;
7171;SDS011;3627;46.544;14.944;2023-07-09T03:24:38;8.70;;;6.43;;
7171;SDS011;3627;46.544;14.944;2023-07-09T03:27:04;8.25;;;6.63;;
7171;SDS011;3627;46.544;14.944;2023-07-09T03:29:31;9.30;;;6.35;;
7171;SDS011;3627;46.544;14.944;2023-07-09T03:31:57;7.63;;;6.55;;
7171;SDS011;3627;46.544;14.944;2023-07-09T03:34:23;9.63;;;6.47;;
7171;SDS011;3627;46.544;14.944;2023-07-09T03:36:51;9.82;;;6.18;;
7171;SDS011;3627;46.544;14.944;2023-07-09T03:39:18;8.70;;;6.22;;
7171;SDS011;3627;46.544;14.944;2023-07-09T03:41:44;8.60;;;6.10;;
7171;SDS011;3627;46.544;14.944;2023-07-09T03:44:10;9.32;;;6.30;;
7171;SDS011;3627;46.544;14.944;2023-07-09T03:46:38;8.32;;;7.03;;
7171;SDS011;3627;46.544;14.944;2023-07-09T03:49:04;9.43;;;6.88;;
7171;SDS011;3627;46.544;14.944;2023-07-09T03:51:31;8.63;;;6.43;;
7171;SDS011;3627;46.544;14.944;2023-07-09T03:53:59;8.48;;;6.60;;
7171;SDS011;3627;46.544;14.944;2023-07-09T03:56:25;8.50;;;6.10;;
7171;SDS011;3627;46.544;14.944;2023-07-09T03:58:52;7.97;;;6.30;;
7171;SDS011;3627;46.544;14.944;2023-07-09T04:01:18;6.80;;;6.10;;
7171;SDS011;3627;46.544;14.944;2023-07-09T04:03:44;8.05;;;6.32;;
7171;SDS011;3627;46.544;14.944;2023-07-09T04:06:11;7.30;;;5.38;;
7171;SDS011;3627;46.544;14.944;2023-07-09T04:08:37;7.22;;;5.97;;
7171;SDS011;3627;46.544;14.944;2023-07-09T04:11:05;8.20;;;6.40;;
7171;SDS011;3627;46.544;14.944;2023-07-09T04:13:31;9.13;;;6.35;;
7171;SDS011;3627;46.544;14.944;2023-07-09T04:15:58;9.05;;;6.20;;
7171;SDS011;3627;46.544;14.944;2023-07-09T04:18:24;7.43;;;5.75;;
7171;SDS011;3627;46.544;14.944;2023-07-09T04:20:51;6.90;;;6.10;;
7171;SDS011;3627;46.544;14.944;2023-07-09T04:23:18;9.07;;;6.05;;
7171;SDS011;3627;46.544;14.944;2023-07-09T04:25:45;8.00;;;6.60;;
7171;SDS011;3627;46.544;14.944;2023-07-09T04:28:12;8.82;;;7.30;;
7171;SDS011;3627;46.544;14.944;2023-07-09T04:30:44;10.00;;;6.43;;
7171;SDS011;3627;46.544;14.944;2023-07-09T04:33:13;8.80;;;6.72;;
7171;SDS011;3627;46.544;14.944;2023-07-09T04:35:42;7.90;;;5.70;;
7171;SDS011;3627;46.544;14.944;2023-07-09T04:38:09;7.55;;;5.75;;
7171;SDS011;3627;46.544;14.944;2023-07-09T04:40:35;7.80;;;5.95;;
7171;SDS011;3627;46.544;14.944;2023-07-09T04:43:02;7.40;;;6.15;;
7171;SDS011;3627;46.544;14.944;2023-07-09T04:45:29;9.23;;;5.57;;
7171;SDS011;3627;46.544;14.944;2023-07-09T04:47:56;7.35;;;6.05;;
7171;SDS011;3627;46.544;14.944;2023-07-09T04:50:22;8.38;;;6.03;;
7171;SDS011;3627;46.544;14.944;2023-07-09T04:52:48;7.82;;;5.45;;
7171;SDS011;3627;46.544;14.944;2023-07-09T04:55:15;5.97;;;5.22;;
7171;SDS011;3627;46.544;14.944;2023-07-09T04:57:44;6.65;;;4.82;;
7171;SDS011;3627;46.544;14.944;2023-07-09T05:00:11;7.90;;;4.60;;
7171;SDS011;3627;46.544;14.944;2023-07-09T05:02:39;6.78;;;4.85;;
7171;SDS011;3627;46.544;14.944;2023-07-09T05:05:05;6.18;;;4.90;;
7171;SDS011;3627;46.544;14.944;2023-07-09T05:07:32;8.27;;;4.30;;
7171;SDS011;3627;46.544;14.944;2023-07-09T05:09:59;6.90;;;4.47;;
7171;SDS011;3627;46.544;14.944;2023-07-09T05:12:25;6.03;;;4.50;;
7171;SDS011;3627;46.544;14.944;2023-07-09T05:14:52;6.78;;;4.22;;
7171;SDS011;3627;46.544;14.944;2023-07-09T05:17:18;5.07;;;3.88;;
7171;SDS011;3627;46.544;14.944;2023-07-09T05:19:46;6.57;;;4.45;;
7171;SDS011;3627;46.544;14.944;2023-07-09T05:22:13;8.48;;;4.55;;
7171;SDS011;3627;46.544;14.944;2023-07-09T05:24:39;8.35;;;4.03;;
7171;SDS011;3627;46.544;14.944;2023-07-09T05:27:06;5.80;;;4.22;;
7171;SDS011;3627;46.544;14.944;2023-07-09T05:29:33;6.88;;;4.32;;
7171;SDS011;3627;46.544;14.944;2023-07-09T05:32:00;5.45;;;4.15;;
7171;SDS011;3627;46.544;14.944;2023-07-09T05:34:26;4.60;;;3.88;;
7171;SDS011;3627;46.544;14.944;2023-07-09T05:36:54;4.90;;;4.03;;
7171;SDS011;3627;46.544;14.944;2023-07-09T05:39:21;5.63;;;3.90;;
7171;SDS011;3627;46.544;14.944;2023-07-09T05:41:47;5.45;;;3.78;;
7171;SDS011;3627;46.544;14.944;2023-07-09T05:44:13;6.63;;;4.18;;
7171;SDS011;3627;46.544;14.944;2023-07-09T05:46:40;4.68;;;3.83;;
7171;SDS011;3627;46.544;14.944;2023-07-09T05:49:06;4.40;;;3.80;;
7171;SDS011;3627;46.544;14.944;2023-07-09T05:51:33;4.93;;;3.92;;
7171;SDS011;3627;46.544;14.944;2023-07-09T05:54:01;5.25;;;3.92;;
7171;SDS011;3627;46.544;14.944;2023-07-09T05:56:27;7.07;;;4.13;;
7171;SDS011;3627;46.544;14.944;2023-07-09T05:58:53;5.55;;;4.18;;
7171;SDS011;3627;46.544;14.944;2023-07-09T06:01:21;6.55;;;3.72;;
7171;SDS011;3627;46.544;14.944;2023-07-09T06:03:47;5.55;;;4.28;;
7171;SDS011;3627;46.544;14.944;2023-07-09T06:06:14;5.88;;;3.70;;
7171;SDS011;3627;46.544;14.944;2023-07-09T06:08:41;5.00;;;4.18;;
7171;SDS011;3627;46.544;14.944;2023-07-09T06:11:09;6.30;;;4.00;;
7171;SDS011;3627;46.544;14.944;2023-07-09T06:13:35;5.25;;;3.45;;
7171;SDS011;3627;46.544;14.944;2023-07-09T06:16:02;5.78;;;3.90;;
7171;SDS011;3627;46.544;14.944;2023-07-09T06:18:29;4.40;;;3.50;;
7171;SDS011;3627;46.544;14.944;2023-07-09T06:20:56;5.30;;;3.85;;
7171;SDS011;3627;46.544;14.944;2023-07-09T06:23:23;4.93;;;3.83;;
7171;SDS011;3627;46.544;14.944;2023-07-09T06:25:49;6.00;;;3.63;;
7171;SDS011;3627;46.544;14.944;2023-07-09T06:28:18;5.10;;;3.92;;
7171;SDS011;3627;46.544;14.944;2023-07-09T06:30:45;6.15;;;4.18;;
7171;SDS011;3627;46.544;14.944;2023-07-09T06:33:12;4.68;;;3.72;;
7171;SDS011;3627;46.544;14.944;2023-07-09T06:35:39;5.40;;;3.88;;
7171;SDS011;3627;46.544;14.944;2023-07-09T06:38:11;4.80;;;4.00;;
7171;SDS011;3627;46.544;14.944;2023-07-09T06:40:37;5.78;;;3.50;;
7171;SDS011;3627;46.544;14.944;2023-07-09T06:43:04;4.07;;;3.53;;
7171;SDS011;3627;46.544;14.944;2023-07-09T06:45:32;5.20;;;3.90;;
7171;SDS011;3627;46.544;14.944;2023-07-09T06:47:59;4.65;;;3.75;;
7171;SDS011;3627;46.544;14.944;2023-07-09T06:50:25;4.25;;;3.53;;
7171;SDS011;3627;46.544;14.944;2023-07-09T06:52:51;5.32;;;3.92;;
7171;SDS011;3627;46.544;14.944;2023-07-09T06:55:18;5.47;;;3.65;;
7171;SDS011;3627;46.544;14.944;2023-07-09T07:02:39;4.07;;;3.67;;
7171;SDS011;3627;46.544;14.944;2023-07-09T07:05:05;5.97;;;4.20;;
7171;SDS011;3627;46.544;14.944;2023-07-09T07:07:32;6.35;;;4.13;;
7171;SDS011;3627;46.544;14.944;2023-07-09T07:09:58;3.95;;;3.33;;
7171;SDS011;3627;46.544;14.944;2023-07-09T07:12:25;5.47;;;3.75;;
7171;SDS011;3627;46.544;14.944;2023-07-09T07:14:52;4.70;;;3.97;;
7171;SDS011;3627;46.544;14.944;2023-07-09T07:17:19;4.82;;;3.65;;
7171;SDS011;3627;46.544;14.944;2023-07-09T07:19:47;4.35;;;3.80;;
7171;SDS011;3627;46.544;14.944;2023-07-09T07:22:13;6.00;;;3.88;;
7171;SDS011;3627;46.544;14.944;2023-07-09T07:24:40;4.57;;;4.15;;
7171;SDS011;3627;46.544;14.944;2023-07-09T07:27:07;4.57;;;3.35;;
7171;SDS011;3627;46.544;14.944;2023-07-09T07:29:33;5.78;;;3.63;;
7171;SDS011;3627;46.544;14.944;2023-07-09T07:32:00;5.50;;;3.95;;
7171;SDS011;3627;46.544;14.944;2023-07-09T07:34:26;7.90;;;4.00;;
7171;SDS011;3627;46.544;14.944;2023-07-09T07:36:54;5.15;;;3.75;;
7171;SDS011;3627;46.544;14.944;2023-07-09T07:39:20;5.28;;;3.53;;
7171;SDS011;3627;46.544;14.944;2023-07-09T07:41:46;3.92;;;3.38;;
7171;SDS011;3627;46.544;14.944;2023-07-09T07:44:13;5.97;;;3.60;;
7171;SDS011;3627;46.544;14.944;2023-07-09T07:46:39;6.63;;;4.25;;
7171;SDS011;3627;46.544;14.944;2023-07-09T07:49:05;4.85;;;3.88;;
7171;SDS011;3627;46.544;14.944;2023-07-09T07:51:32;5.25;;;3.47;;
7171;SDS011;3627;46.544;14.944;2023-07-09T07:54:00;6.72;;;3.50;;
7171;SDS011;3627;46.544;14.944;2023-07-09T07:56:26;6.85;;;3.70;;
7171;SDS011;3627;46.544;14.944;2023-07-09T07:58:53;3.90;;;3.50;;
7171;SDS011;3627;46.544;14.944;2023-07-09T08:01:19;6.40;;;3.63;;
7171;SDS011;3627;46.544;14.944;2023-07-09T08:03:45;4.53;;;4.10;;
7171;SDS011;3627;46.544;14.944;2023-07-09T08:06:12;6.05;;;3.40;;
7171;SDS011;3627;46.544;14.944;2023-07-09T08:08:38;4.22;;;3.40;;
7171;SDS011;3627;46.544;14.944;2023-07-09T08:11:06;4.57;;;3.67;;
7171;SDS011;3627;46.544;14.944;2023-07-09T08:13:33;4.05;;;3.65;;
7171;SDS011;3627;46.544;14.944;2023-07-09T08:15:59;4.90;;;3.80;;
7171;SDS011;3627;46.544;14.944;2023-07-09T08:18:26;4.07;;;3.20;;
7171;SDS011;3627;46.544;14.944;2023-07-09T08:20:52;4.78;;;3.38;;
7171;SDS011;3627;46.544;14.944;2023-07-09T08:23:19;5.68;;;3.70;;
7171;SDS011;3627;46.544;14.944;2023-07-09T08:25:51;3.53;;;3.22;;
7171;SDS011;3627;46.544;14.944;2023-07-09T08:28:19;5.95;;;3.47;;
7171;SDS011;3627;46.544;14.944;2023-07-09T08:30:46;4.90;;;3.75;;
7171;SDS011;3627;46.544;14.944;2023-07-09T08:33:12;3.67;;;3.38;;
7171;SDS011;3627;46.544;14.944;2023-07-09T08:35:40;3.40;;;3.10;;
7171;SDS011;3627;46.544;14.944;2023-07-09T08:38:08;3.35;;;3.05;;
7171;SDS011;3627;46.544;14.944;2023-07-09T08:40:37;5.25;;;3.35;;
7171;SDS011;3627;46.544;14.944;2023-07-09T08:43:06;4.60;;;3.15;;
7171;SDS011;3627;46.544;14.944;2023-07-09T08:45:40;6.28;;;3.70;;
7171;SDS011;3627;46.544;14.944;2023-07-09T08:48:11;4.75;;;2.92;;
7171;SDS011;3627;46.544;14.944;2023-07-09T08:50:39;3.97;;;3.58;;
7171;SDS011;3627;46.544;14.944;2023-07-09T08:53:09;4.60;;;3.72;;
7171;SDS011;3627;46.544;14.944;2023-07-09T08:55:38;6.07;;;3.95;;
7171;SDS011;3627;46.544;14.944;2023-07-09T08:58:09;5.25;;;3.53;;
7171;SDS011;3627;46.544;14.944;2023-07-09T09:00:40;4.45;;;3.85;;
7171;SDS011;3627;46.544;14.944;2023-07-09T09:03:10;4.97;;;3.40;;
7171;SDS011;3627;46.544;14.944;2023-07-09T09:05:37;5.45;;;4.20;;
7171;SDS011;3627;46.544;14.944;2023-07-09T09:08:09;5.32;;;4.65;;
7171;SDS011;3627;46.544;14.944;2023-07-09T09:10:38;5.38;;;4.10;;
7171;SDS011;3627;46.544;14.944;2023-07-09T09:13:08;5.45;;;3.80;;
7171;SDS011;3627;46.544;14.944;2023-07-09T09:15:37;4.38;;;3.60;;
7171;SDS011;3627;46.544;14.944;2023-07-09T09:18:21;3.38;;;3.05;;
7171;SDS011;3627;46.544;14.944;2023-07-09T09:20:51;5.00;;;3.63;;
7171;SDS011;3627;46.544;14.944;2023-07-09T09:23:19;5.75;;;2.90;;
7171;SDS011;3627;46.544;14.944;2023-07-09T09:25:48;3.83;;;3.08;;
7171;SDS011;3627;46.544;14.944;2023-07-09T09:28:15;4.38;;;3.42;;
7171;SDS011;3627;46.544;14.944;2023-07-09T09:30:41;4.65;;;2.80;;
7171;SDS011;3627;46.544;14.944;2023-07-09T09:33:08;4.88;;;3.33;;
7171;SDS011;3627;46.544;14.944;2023-07-09T09:35:38;3.67;;;2.90;;
7171;SDS011;3627;46.544;14.944;2023-07-09T09:38:09;5.00;;;3.83;;
7171;SDS011;3627;46.544;14.944;2023-07-09T09:40:36;4.80;;;3.78;;
7171;SDS011;3627;46.544;14.944;2023-07-09T09:43:04;3.95;;;3.50;;
7171;SDS011;3627;46.544;14.944;2023-07-09T09:45:37;4.07;;;3.67;;
7171;SDS011;3627;46.544;14.944;2023-07-09T09:48:09;4.25;;;3.35;;
7171;SDS011;3627;46.544;14.944;2023-07-09T09:50:37;4.50;;;4.00;;
7171;SDS011;3627;46.544;14.944;2023-07-09T09:53:06;5.32;;;3.88;;
7171;SDS011;3627;46.544;14.944;2023-07-09T09:55:33;4.53;;;3.33;;
7171;SDS011;3627;46.544;14.944;2023-07-09T09:58:00;5.93;;;3.97;;
7171;SDS011;3627;46.544;14.944;2023-07-09T10:00:28;6.75;;;3.85;;
7171;SDS011;3627;46.544;14.944;2023-07-09T10:02:58;5.78;;;3.88;;
7171;SDS011;3627;46.544;14.944;2023-07-09T10:05:27;5.68;;;4.22;;
7171;SDS011;3627;46.544;14.944;2023-07-09T10:07:57;5.22;;;3.67;;
7171;SDS011;3627;46.544;14.944;2023-07-09T10:10:26;5.60;;;4.28;;
7171;SDS011;3627;46.544;14.944;2023-07-09T10:12:56;5.00;;;4.05;;
7171;SDS011;3627;46.544;14.944;2023-07-09T10:15:29;6.57;;;4.18;;
7171;SDS011;3627;46.544;14.944;2023-07-09T10:17:58;5.55;;;4.13;;
7171;SDS011;3627;46.544;14.944;2023-07-09T10:20:29;10.45;;;4.63;;
7171;SDS011;3627;46.544;14.944;2023-07-09T10:23:01;6.90;;;3.95;;
7171;SDS011;3627;46.544;14.944;2023-07-09T10:25:30;6.38;;;3.70;;
7171;SDS011;3627;46.544;14.944;2023-07-09T10:28:03;6.75;;;3.92;;
7171;SDS011;3627;46.544;14.944;2023-07-09T10:30:37;5.57;;;4.20;;
7171;SDS011;3627;46.544;14.944;2023-07-09T10:33:08;7.25;;;4.25;;
7171;SDS011;3627;46.544;14.944;2023-07-09T10:35:37;6.03;;;4.32;;
7171;SDS011;3627;46.544;14.944;2023-07-09T10:38:11;7.13;;;4.63;;
7171;SDS011;3627;46.544;14.944;2023-07-09T10:40:43;5.72;;;4.10;;
7171;SDS011;3627;46.544;14.944;2023-07-09T10:43:13;5.00;;;4.50;;
7171;SDS011;3627;46.544;14.944;2023-07-09T10:45:42;8.75;;;4.38;;
7171;SDS011;3627;46.544;14.944;2023-07-09T10:48:11;5.28;;;3.88;;
7171;SDS011;3627;46.544;14.944;2023-07-09T10:50:39;10.45;;;4.20;;
7171;SDS011;3627;46.544;14.944;2023-07-09T10:53:11;4.88;;;4.22;;
7171;SDS011;3627;46.544;14.944;2023-07-09T10:55:39;6.38;;;4.28;;
7171;SDS011;3627;46.544;14.944;2023-07-09T10:58:11;7.40;;;4.70;;
7171;SDS011;3627;46.544;14.944;2023-07-09T11:00:40;5.35;;;4.32;;
7171;SDS011;3627;46.544;14.944;2023-07-09T11:03:09;8.18;;;4.47;;
7171;SDS011;3627;46.544;14.944;2023-07-09T11:05:39;7.07;;;4.43;;
7171;SDS011;3627;46.544;14.944;2023-07-09T11:08:08;4.90;;;3.95;;
7171;SDS011;3627;46.544;14.944;2023-07-09T11:10:39;6.53;;;4.35;;
7171;SDS011;3627;46.544;14.944;2023-07-09T11:13:09;6.38;;;4.70;;
7171;SDS011;3627;46.544;14.944;2023-07-09T11:15:37;6.03;;;4.53;;
7171;SDS011;3627;46.544;14.944;2023-07-09T11:18:04;6.50;;;4.72;;
7171;SDS011;3627;46.544;14.944;2023-07-09T11:20:32;5.85;;;4.47;;
7171;SDS011;3627;46.544;14.944;2023-07-09T11:23:01;7.22;;;4.78;;
7171;SDS011;3627;46.544;14.944;2023-07-09T11:25:29;5.70;;;4.20;;
7171;SDS011;3627;46.544;14.944;2023-07-09T11:28:02;6.68;;;4.60;;
7171;SDS011;3627;46.544;14.944;2023-07-09T11:30:29;6.88;;;4.30;;
7171;SDS011;3627;46.544;14.944;2023-07-09T11:32:57;7.47;;;4.55;;
7171;SDS011;3627;46.544;14.944;2023-07-09T11:35:24;5.72;;;4.60;;
7171;SDS011;3627;46.544;14.944;2023-07-09T11:37:51;6.47;;;4.82;;
7171;SDS011;3627;46.544;14.944;2023-07-09T11:40:19;7.88;;;5.35;;
7171;SDS011;3627;46.544;14.944;2023-07-09T11:42:52;7.32;;;4.75;;
7171;SDS011;3627;46.544;14.944;2023-07-09T11:45:21;7.82;;;4.82;;
7171;SDS011;3627;46.544;14.944;2023-07-09T11:47:51;7.72;;;4.68;;
7171;SDS011;3627;46.544;14.944;2023-07-09T11:50:22;7.32;;;4.72;;
7171;SDS011;3627;46.544;14.944;2023-07-09T11:52:51;7.57;;;5.05;;
7171;SDS011;3627;46.544;14.944;2023-07-09T11:55:24;6.35;;;4.65;;
7171;SDS011;3627;46.544;14.944;2023-07-09T11:57:55;5.38;;;4.72;;
7171;SDS011;3627;46.544;14.944;2023-07-09T12:00:23;6.03;;;4.10;;
7171;SDS011;3627;46.544;14.944;2023-07-09T12:02:49;7.22;;;4.38;;
7171;SDS011;3627;46.544;14.944;2023-07-09T12:05:18;7.35;;;4.93;;
7171;SDS011;3627;46.544;14.944;2023-07-09T12:07:45;7.22;;;5.40;;
7171;SDS011;3627;46.544;14.944;2023-07-09T12:10:15;6.15;;;4.55;;
7171;SDS011;3627;46.544;14.944;2023-07-09T12:12:43;5.20;;;4.35;;
7171;SDS011;3627;46.544;14.944;2023-07-09T12:15:12;5.63;;;4.97;;
7171;SDS011;3627;46.544;14.944;2023-07-09T12:17:43;8.13;;;5.43;;
7171;SDS011;3627;46.544;14.944;2023-07-09T12:20:18;5.95;;;4.18;;
7171;SDS011;3627;46.544;14.944;2023-07-09T12:22:44;6.43;;;4.20;;
7171;SDS011;3627;46.544;14.944;2023-07-09T12:25:17;8.00;;;4.60;;
7171;SDS011;3627;46.544;14.944;2023-07-09T12:27:44;6.43;;;4.47;;
7171;SDS011;3627;46.544;14.944;2023-07-09T12:30:11;5.60;;;4.18;;
7171;SDS011;3627;46.544;14.944;2023-07-09T12:32:44;9.10;;;5.43;;
7171;SDS011;3627;46.544;14.944;2023-07-09T12:35:12;9.10;;;4.72;;
7171;SDS011;3627;46.544;14.944;2023-07-09T12:37:39;9.57;;;5.00;;
7171;SDS011;3627;46.544;14.944;2023-07-09T12:40:09;7.35;;;5.32;;
7171;SDS011;3627;46.544;14.944;2023-07-09T12:42:37;6.45;;;5.30;;
7171;SDS011;3627;46.544;14.944;2023-07-09T12:45:04;6.82;;;4.63;;
7171;SDS011;3627;46.544;14.944;2023-07-09T12:47:31;6.50;;;5.03;;
7171;SDS011;3627;46.544;14.944;2023-07-09T12:50:03;6.88;;;4.88;;
7171;SDS011;3627;46.544;14.944;2023-07-09T12:52:29;7.70;;;4.90;;
7171;SDS011;3627;46.544;14.944;2023-07-09T12:54:56;7.07;;;4.80;;
7171;SDS011;3627;46.544;14.944;2023-07-09T12:57:23;6.88;;;5.18;;
7171;SDS011;3627;46.544;14.944;2023-07-09T12:59:49;7.00;;;4.32;;
7171;SDS011;3627;46.544;14.944;2023-07-09T13:02:17;6.30;;;4.53;;
7171;SDS011;3627;46.544;14.944;2023-07-09T13:04:43;8.88;;;4.97;;
7171;SDS011;3627;46.544;14.944;2023-07-09T13:07:29;8.80;;;4.75;;
7171;SDS011;3627;46.544;14.944;2023-07-09T13:09:57;5.40;;;4.88;;
7171;SDS011;3627;46.544;14.944;2023-07-09T13:12:30;7.88;;;4.63;;
7171;SDS011;3627;46.544;14.944;2023-07-09T13:14:56;8.88;;;4.80;;
7171;SDS011;3627;46.544;14.944;2023-07-09T13:17:23;8.02;;;5.05;;
7171;SDS011;3627;46.544;14.944;2023-07-09T13:19:53;7.13;;;4.50;;
7171;SDS011;3627;46.544;14.944;2023-07-09T13:22:21;6.18;;;4.70;;
7171;SDS011;3627;46.544;14.944;2023-07-09T13:24:50;6.80;;;4.50;;
7171;SDS011;3627;46.544;14.944;2023-07-09T13:27:17;5.93;;;4.63;;
7171;SDS011;3627;46.544;14.944;2023-07-09T13:29:43;6.22;;;4.80;;
7171;SDS011;3627;46.544;14.944;2023-07-09T13:32:12;5.78;;;4.15;;
7171;SDS011;3627;46.544;14.944;2023-07-09T13:34:38;8.20;;;5.32;;
7171;SDS011;3627;46.544;14.944;2023-07-09T13:37:05;7.78;;;4.78;;
7171;SDS011;3627;46.544;14.944;2023-07-09T13:39:31;5.13;;;4.60;;
7171;SDS011;3627;46.544;14.944;2023-07-09T13:42:00;6.57;;;4.90;;
7171;SDS011;3627;46.544;14.944;2023-07-09T13:44:27;5.57;;;4.20;;
7171;SDS011;3627;46.544;14.944;2023-07-09T13:46:55;7.45;;;4.60;;
7171;SDS011;3627;46.544;14.944;2023-07-09T13:49:22;8.48;;;4.47;;
7171;SDS011;3627;46.544;14.944;2023-07-09T13:51:50;7.70;;;4.35;;
7171;SDS011;3627;46.544;14.944;2023-07-09T13:54:17;5.70;;;4.47;;
7171;SDS011;3627;46.544;14.944;2023-07-09T13:56:44;5.13;;;4.50;;
7171;SDS011;3627;46.544;14.944;2023-07-09T13:59:14;4.70;;;4.20;;
7171;SDS011;3627;46.544;14.944;2023-07-09T14:01:41;5.65;;;4.30;;
7171;SDS011;3627;46.544;14.944;2023-07-09T14:04:08;6.43;;;4.50;;
7171;SDS011;3627;46.544;14.944;2023-07-09T14:06:35;5.68;;;4.30;;
7171;SDS011;3627;46.544;14.944;2023-07-09T14:09:01;6.53;;;4.90;;
7171;SDS011;3627;46.544;14.944;2023-07-09T14:11:28;5.43;;;4.00;;
7171;SDS011;3627;46.544;14.944;2023-07-09T14:13:56;5.47;;;4.72;;
7171;SDS011;3627;46.544;14.944;2023-07-09T14:16:24;5.30;;;3.88;;
7171;SDS011;3627;46.544;14.944;2023-07-09T14:18:50;5.43;;;4.40;;
7171;SDS011;3627;46.544;14.944;2023-07-09T14:21:18;6.07;;;4.55;;
7171;SDS011;3627;46.544;14.944;2023-07-09T14:23:47;7.35;;;4.75;;
7171;SDS011;3627;46.544;14.944;2023-07-09T14:26:13;6.30;;;4.95;;
7171;SDS011;3627;46.544;14.944;2023-07-09T14:28:40;6.55;;;4.22;;
7171;SDS011;3627;46.544;14.944;2023-07-09T14:31:09;7.30;;;4.88;;
7171;SDS011;3627;46.544;14.944;2023-07-09T14:33:41;5.82;;;4.57;;
7171;SDS011;3627;46.544;14.944;2023-07-09T14:36:07;8.30;;;4.97;;
7171;SDS011;3627;46.544;14.944;2023-07-09T14:38:34;5.75;;;4.13;;
7171;SDS011;3627;46.544;14.944;2023-07-09T14:41:00;5.85;;;4.22;;
7171;SDS011;3627;46.544;14.944;2023-07-09T14:43:30;6.05;;;4.47;;
7171;SDS011;3627;46.544;14.944;2023-07-09T14:45:57;7.75;;;4.75;;
7171;SDS011;3627;46.544;14.944;2023-07-09T14:48:23;6.72;;;4.93;;
7171;SDS011;3627;46.544;14.944;2023-07-09T14:50:51;5.53;;;4.47;;
7171;SDS011;3627;46.544;14.944;2023-07-09T14:53:20;6.13;;;4.85;;
7171;SDS011;3627;46.544;14.944;2023-07-09T14:55:48;4.95;;;4.45;;
7171;SDS011;3627;46.544;14.944;2023-07-09T14:58:14;6.63;;;4.50;;
7171;SDS011;3627;46.544;14.944;2023-07-09T15:00:41;7.60;;;4.93;;
7171;SDS011;3627;46.544;14.944;2023-07-09T15:03:09;7.32;;;5.22;;
7171;SDS011;3627;46.544;14.944;2023-07-09T15:05:35;9.30;;;5.00;;
7171;SDS011;3627;46.544;14.944;2023-07-09T15:08:09;7.78;;;5.32;;